PWSweather.com
Personal Weather Stations
Station Observations
CARNOUSTIE
Pambride, CarnoustieGB DD7 6DY

PambrideCarnoustieGB DD7 6DY

Lat: 56.50889, Lon: -2.7051

Elevation: 105

Station Type: Oregon Scientific WMR200

www.carnoustieweather.co.uk

High Low Average
Temperature 46.2°F7.9°C 39.7°F4.3°C 41.6°F5.3°C
Dew Point 42.6°F5.9°C 38.9°F3.8°C 40.1°F4.5°C
Winds 1.2 mph 1.9 kmh Calm Calm Calm SECalm SE
Wind Gusts 3.5 mph5.6 kmh -- --
Humidity 98% 82% 94%
Pressure 29.47 in998.0 mb 29.23 in989.8 mb -
Precipitation 0.00 in0.0 mm - -
Hour Temp Dew Point Humidity Winds Wind Gusts Pressure Precip Precip Rate Daily Precip Total
12:00 AM 40.1°F4.5°C 39.6°F4.2°C 98% Calm Calm -- 29.23 in989.8 mb - 0.00 in0.0 mm 0.00 in0.0 mm
12:10 AM 40.1°F4.5°C 39.6°F4.2°C 98% Calm Calm -- 29.23 in989.8 mb - 0.00 in0.0 mm 0.00 in0.0 mm
12:20 AM 40.3°F4.6°C 39.8°F4.3°C 98% Calm Calm -- 29.23 in989.8 mb - 0.00 in0.0 mm 0.00 in0.0 mm
12:30 AM 40.3°F4.6°C 39.8°F4.3°C 98% Calm Calm -- 29.23 in989.8 mb - 0.00 in0.0 mm 0.00 in0.0 mm
12:40 AM 40.3°F4.6°C 39.8°F4.3°C 98% Calm Calm -- 29.23 in989.8 mb - 0.00 in0.0 mm 0.00 in0.0 mm
12:50 AM 40.3°F4.6°C 39.8°F4.3°C 98% Calm Calm -- 29.23 in989.8 mb - 0.00 in0.0 mm 0.00 in0.0 mm
01:00 AM 40.3°F4.6°C 39.8°F4.3°C 98% Calm Calm -- 29.23 in989.8 mb - 0.00 in0.0 mm 0.00 in0.0 mm
01:10 AM 40.3°F4.6°C 39.8°F4.3°C 98% Calm Calm -- 29.23 in989.8 mb - 0.00 in0.0 mm 0.00 in0.0 mm
01:20 AM 40.5°F4.7°C 39.9°F4.4°C 98% Calm Calm -- 29.23 in989.8 mb - 0.00 in0.0 mm 0.00 in0.0 mm
01:30 AM 40.5°F4.7°C 39.9°F4.4°C 98% Calm Calm -- 29.23 in989.8 mb - 0.00 in0.0 mm 0.00 in0.0 mm
01:40 AM 40.5°F4.7°C 39.9°F4.4°C 98% Calm Calm -- 29.23 in989.8 mb - 0.00 in0.0 mm 0.00 in0.0 mm
01:50 AM 40.5°F4.7°C 39.9°F4.4°C 98% Calm Calm -- 29.23 in989.8 mb - 0.00 in0.0 mm 0.00 in0.0 mm
02:00 AM 40.5°F4.7°C 39.9°F4.4°C 98% Calm Calm -- 29.23 in989.8 mb - 0.00 in0.0 mm 0.00 in0.0 mm
02:10 AM 40.5°F4.7°C 39.9°F4.4°C 98% Calm Calm -- 29.23 in989.8 mb - 0.00 in0.0 mm 0.00 in0.0 mm
02:20 AM 40.5°F4.7°C 39.9°F4.4°C 98% Calm Calm -- 29.23 in989.8 mb - 0.00 in0.0 mm 0.00 in0.0 mm
02:30 AM 40.5°F4.7°C 39.9°F4.4°C 98% Calm Calm -- 29.23 in989.8 mb - 0.00 in0.0 mm 0.00 in0.0 mm
02:40 AM 40.5°F4.7°C 39.9°F4.4°C 98% Calm Calm -- 29.23 in989.8 mb - 0.00 in0.0 mm 0.00 in0.0 mm
02:50 AM 40.5°F4.7°C 39.9°F4.4°C 98% Calm Calm -- 29.23 in989.8 mb - 0.00 in0.0 mm 0.00 in0.0 mm
03:00 AM 40.3°F4.6°C 39.8°F4.3°C 98% Calm Calm -- 29.23 in989.8 mb - 0.00 in0.0 mm 0.00 in0.0 mm
03:10 AM 40.3°F4.6°C 39.8°F4.3°C 98% Calm Calm -- 29.23 in989.8 mb - 0.00 in0.0 mm 0.00 in0.0 mm
03:20 AM 40.3°F4.6°C 39.8°F4.3°C 98% Calm Calm -- 29.23 in989.8 mb - 0.00 in0.0 mm 0.00 in0.0 mm
03:30 AM 40.3°F4.6°C 39.8°F4.3°C 98% Calm Calm -- 29.26 in990.9 mb - 0.00 in0.0 mm 0.00 in0.0 mm
03:40 AM 40.3°F4.6°C 39.8°F4.3°C 98% Calm Calm -- 29.26 in990.9 mb - 0.00 in0.0 mm 0.00 in0.0 mm
03:50 AM 40.1°F4.5°C 39.6°F4.2°C 98% Calm Calm -- 29.26 in990.9 mb - 0.00 in0.0 mm 0.00 in0.0 mm
04:00 AM 40.3°F4.6°C 39.8°F4.3°C 98% Calm Calm -- 29.26 in990.9 mb - 0.00 in0.0 mm 0.00 in0.0 mm
04:10 AM 40.3°F4.6°C 39.8°F4.3°C 98% Calm Calm -- 29.26 in990.9 mb - 0.00 in0.0 mm 0.00 in0.0 mm
04:20 AM 40.3°F4.6°C 39.8°F4.3°C 98% Calm Calm -- 29.26 in990.9 mb - 0.00 in0.0 mm 0.00 in0.0 mm
04:30 AM 40.1°F4.5°C 39.6°F4.2°C 98% Calm Calm -- 29.26 in990.9 mb - 0.00 in0.0 mm 0.00 in0.0 mm
04:40 AM 40.1°F4.5°C 39.6°F4.2°C 98% Calm Calm -- 29.26 in990.9 mb - 0.00 in0.0 mm 0.00 in0.0 mm
04:50 AM 40.1°F4.5°C 39.6°F4.2°C 98% Calm Calm -- 29.26 in990.9 mb - 0.00 in0.0 mm 0.00 in0.0 mm
05:00 AM 40.1°F4.5°C 39.6°F4.2°C 98% Calm Calm -- 29.26 in990.9 mb - 0.00 in0.0 mm 0.00 in0.0 mm
05:10 AM 40.1°F4.5°C 39.6°F4.2°C 98% Calm Calm -- 29.26 in990.9 mb - 0.00 in0.0 mm 0.00 in0.0 mm
05:20 AM 39.9°F4.4°C 39.4°F4.1°C 98% Calm Calm -- 29.26 in990.9 mb - 0.00 in0.0 mm 0.00 in0.0 mm
05:30 AM 39.9°F4.4°C 39.4°F4.1°C 98% Calm Calm -- 29.26 in990.9 mb - 0.00 in0.0 mm 0.00 in0.0 mm
05:40 AM 39.9°F4.4°C 39.4°F4.1°C 98% Calm Calm -- 29.26 in990.9 mb - 0.00 in0.0 mm 0.00 in0.0 mm
05:50 AM 39.7°F4.3°C 39.2°F4.0°C 98% Calm Calm -- 29.26 in990.9 mb - 0.00 in0.0 mm 0.00 in0.0 mm
06:00 AM 39.7°F4.3°C 39.2°F4.0°C 98% Calm Calm -- 29.26 in990.9 mb - 0.00 in0.0 mm 0.00 in0.0 mm
06:10 AM 39.7°F4.3°C 39.2°F4.0°C 98% Calm Calm -- 29.26 in990.9 mb - 0.00 in0.0 mm 0.00 in0.0 mm
06:20 AM 39.7°F4.3°C 39.2°F4.0°C 98% Calm Calm -- 29.26 in990.9 mb - 0.00 in0.0 mm 0.00 in0.0 mm
06:30 AM 39.7°F4.3°C 39.2°F4.0°C 98% Calm Calm -- 29.26 in990.9 mb - 0.00 in0.0 mm 0.00 in0.0 mm
06:40 AM 39.7°F4.3°C 39.2°F4.0°C 98% Calm Calm -- 29.26 in990.9 mb - 0.00 in0.0 mm 0.00 in0.0 mm
06:50 AM 39.7°F4.3°C 39.2°F4.0°C 98% Calm Calm -- 29.26 in990.9 mb - 0.00 in0.0 mm 0.00 in0.0 mm
07:00 AM 39.7°F4.3°C 39.2°F4.0°C 98% Calm Calm -- 29.23 in989.8 mb - 0.00 in0.0 mm 0.00 in0.0 mm
07:10 AM 39.7°F4.3°C 39.2°F4.0°C 98% Calm Calm -- 29.23 in989.8 mb - 0.00 in0.0 mm 0.00 in0.0 mm
07:20 AM 39.7°F4.3°C 39.2°F4.0°C 98% Calm Calm -- 29.23 in989.8 mb - 0.00 in0.0 mm 0.00 in0.0 mm
07:30 AM 39.7°F4.3°C 39.2°F4.0°C 98% Calm Calm -- 29.26 in990.9 mb - 0.00 in0.0 mm 0.00 in0.0 mm
07:40 AM 39.9°F4.4°C 39.4°F4.1°C 98% 1.2 mph N1.9 kmh N -- 29.26 in990.9 mb - 0.00 in0.0 mm 0.00 in0.0 mm
07:50 AM 39.9°F4.4°C 39.4°F4.1°C 98% Calm Calm -- 29.26 in990.9 mb - 0.00 in0.0 mm 0.00 in0.0 mm
08:00 AM 40.1°F4.5°C 39.6°F4.2°C 98% Calm Calm -- 29.26 in990.9 mb - 0.00 in0.0 mm 0.00 in0.0 mm
08:10 AM 40.3°F4.6°C 39.8°F4.3°C 98% Calm Calm -- 29.26 in990.9 mb - 0.00 in0.0 mm 0.00 in0.0 mm
08:20 AM 40.3°F4.6°C 39.8°F4.3°C 98% Calm Calm -- 29.26 in990.9 mb - 0.00 in0.0 mm 0.00 in0.0 mm
08:30 AM 40.5°F4.7°C 39.9°F4.4°C 98% Calm Calm -- 29.26 in990.9 mb - 0.00 in0.0 mm 0.00 in0.0 mm
08:40 AM 40.6°F4.8°C 40.1°F4.5°C 98% Calm Calm -- 29.26 in990.9 mb - 0.00 in0.0 mm 0.00 in0.0 mm
08:50 AM 40.8°F4.9°C 40.3°F4.6°C 98% Calm Calm -- 29.26 in990.9 mb - 0.00 in0.0 mm 0.00 in0.0 mm
09:00 AM 41.2°F5.1°C 40.7°F4.8°C 98% 1.2 mph NNE1.9 kmh NNE -- 29.26 in990.9 mb - 0.00 in0.0 mm 0.00 in0.0 mm
09:10 AM 41.5°F5.3°C 41.0°F5.0°C 98% Calm Calm -- 29.26 in990.9 mb - 0.00 in0.0 mm 0.00 in0.0 mm
09:20 AM 41.6°F5.3°C 41.1°F5.1°C 98% Calm Calm -- 29.29 in991.9 mb - 0.00 in0.0 mm 0.00 in0.0 mm
09:30 AM 41.9°F5.5°C 41.4°F5.2°C 98% Calm Calm -- 29.29 in991.9 mb - 0.00 in0.0 mm 0.00 in0.0 mm
09:40 AM 42.3°F5.7°C 41.7°F5.4°C 98% Calm Calm -- 29.29 in991.9 mb - 0.00 in0.0 mm 0.00 in0.0 mm
09:50 AM 42.8°F6.0°C 42.3°F5.7°C 98% Calm Calm -- 29.29 in991.9 mb - 0.00 in0.0 mm 0.00 in0.0 mm
10:00 AM 43.0°F6.1°C 42.2°F5.7°C 97% 1.2 mph N1.9 kmh N -- 29.29 in991.9 mb - 0.00 in0.0 mm 0.00 in0.0 mm
10:10 AM 42.8°F6.0°C 41.7°F5.4°C 96% Calm Calm -- 29.29 in991.9 mb - 0.00 in0.0 mm 0.00 in0.0 mm
10:20 AM 43.0°F6.1°C 41.9°F5.5°C 96% Calm Calm -- 29.29 in991.9 mb - 0.00 in0.0 mm 0.00 in0.0 mm
10:30 AM 43.0°F6.1°C 41.6°F5.3°C 95% Calm Calm -- 29.32 in992.9 mb - 0.00 in0.0 mm 0.00 in0.0 mm
10:40 AM 43.0°F6.1°C 41.4°F5.2°C 94% Calm Calm -- 29.32 in992.9 mb - 0.00 in0.0 mm 0.00 in0.0 mm
10:50 AM 43.2°F6.2°C 41.6°F5.3°C 94% Calm Calm -- 29.29 in991.9 mb - 0.00 in0.0 mm 0.00 in0.0 mm
11:00 AM 43.3°F6.3°C 41.7°F5.4°C 94% Calm Calm -- 29.32 in992.9 mb - 0.00 in0.0 mm 0.00 in0.0 mm
11:10 AM 43.5°F6.4°C 41.9°F5.5°C 94% Calm Calm -- 29.32 in992.9 mb - 0.00 in0.0 mm 0.00 in0.0 mm
11:20 AM 43.7°F6.5°C 42.1°F5.6°C 94% Calm Calm -- 29.32 in992.9 mb - 0.00 in0.0 mm 0.00 in0.0 mm
11:30 AM 43.7°F6.5°C 41.5°F5.3°C 92% Calm Calm -- 29.32 in992.9 mb - 0.00 in0.0 mm 0.00 in0.0 mm
11:40 AM 44.1°F6.7°C 41.9°F5.5°C 92% Calm Calm -- 29.32 in992.9 mb - 0.00 in0.0 mm 0.00 in0.0 mm
11:50 AM 44.1°F6.7°C 41.6°F5.3°C 91% Calm Calm 3.5 mph5.6 kmh 29.32 in992.9 mb - 0.00 in0.0 mm 0.00 in0.0 mm
12:00 PM 44.6°F7.0°C 42.1°F5.6°C 91% Calm Calm -- 29.35 in993.9 mb - 0.00 in0.0 mm 0.00 in0.0 mm
12:10 PM 44.8°F7.1°C 42.0°F5.6°C 90% Calm Calm -- 29.35 in993.9 mb - 0.00 in0.0 mm 0.00 in0.0 mm
12:20 PM 45.1°F7.3°C 42.4°F5.8°C 90% Calm Calm -- 29.32 in992.9 mb - 0.00 in0.0 mm 0.00 in0.0 mm
12:30 PM 45.1°F7.3°C 42.1°F5.6°C 89% Calm Calm 1.2 mph1.9 kmh 29.32 in992.9 mb - 0.00 in0.0 mm 0.00 in0.0 mm
12:40 PM 45.1°F7.3°C 41.5°F5.3°C 87% Calm Calm -- 29.32 in992.9 mb - 0.00 in0.0 mm 0.00 in0.0 mm
12:50 PM 45.3°F7.4°C 42.0°F5.6°C 88% 1.2 mph NE1.9 kmh NE -- 29.29 in991.9 mb - 0.00 in0.0 mm 0.00 in0.0 mm
01:00 PM 45.9°F7.7°C 42.2°F5.7°C 87% Calm Calm -- 29.32 in992.9 mb - 0.00 in0.0 mm 0.00 in0.0 mm
01:10 PM 46.2°F7.9°C 42.6°F5.9°C 87% Calm Calm -- 29.32 in992.9 mb - 0.00 in0.0 mm 0.00 in0.0 mm
01:20 PM 46.2°F7.9°C 42.3°F5.7°C 86% Calm Calm -- 29.32 in992.9 mb - 0.00 in0.0 mm 0.00 in0.0 mm
01:30 PM 46.0°F7.8°C 41.8°F5.4°C 85% Calm Calm -- 29.32 in992.9 mb - 0.00 in0.0 mm 0.00 in0.0 mm
01:40 PM 45.9°F7.7°C 40.7°F4.8°C 82% Calm Calm -- 29.32 in992.9 mb - 0.00 in0.0 mm 0.00 in0.0 mm
01:50 PM 45.5°F7.5°C 40.6°F4.8°C 83% Calm Calm -- 29.32 in992.9 mb - 0.00 in0.0 mm 0.00 in0.0 mm
02:00 PM 45.4°F7.4°C 40.9°F4.9°C 84% Calm Calm -- 29.32 in992.9 mb - 0.00 in0.0 mm 0.00 in0.0 mm
02:10 PM 45.0°F7.2°C 40.4°F4.7°C 84% Calm Calm -- 29.32 in992.9 mb - 0.00 in0.0 mm 0.00 in0.0 mm
02:20 PM 44.8°F7.1°C 40.5°F4.7°C 85% Calm Calm -- 29.32 in992.9 mb - 0.00 in0.0 mm 0.00 in0.0 mm
02:30 PM 44.6°F7.0°C 40.4°F4.7°C 85% Calm Calm -- 29.32 in992.9 mb - 0.00 in0.0 mm 0.00 in0.0 mm
02:40 PM 44.2°F6.8°C 40.0°F4.4°C 85% Calm Calm -- 29.32 in992.9 mb - 0.00 in0.0 mm 0.00 in0.0 mm
02:50 PM 44.1°F6.7°C 39.8°F4.3°C 85% Calm Calm -- 29.32 in992.9 mb - 0.00 in0.0 mm 0.00 in0.0 mm
03:00 PM 44.0°F6.7°C 39.8°F4.3°C 85% Calm Calm -- 29.32 in992.9 mb - 0.00 in0.0 mm 0.00 in0.0 mm
03:10 PM 43.9°F6.6°C 40.0°F4.4°C 86% Calm Calm -- 29.32 in992.9 mb - 0.00 in0.0 mm 0.00 in0.0 mm
03:20 PM 43.9°F6.6°C 40.0°F4.4°C 86% Calm Calm -- 29.35 in993.9 mb - 0.00 in0.0 mm 0.00 in0.0 mm
03:30 PM 43.3°F6.3°C 39.4°F4.1°C 86% Calm Calm -- 29.35 in993.9 mb - 0.00 in0.0 mm 0.00 in0.0 mm
03:40 PM 43.3°F6.3°C 39.4°F4.1°C 86% Calm Calm -- 29.35 in993.9 mb - 0.00 in0.0 mm 0.00 in0.0 mm
03:50 PM 43.3°F6.3°C 39.7°F4.3°C 87% Calm Calm -- 29.35 in993.9 mb - 0.00 in0.0 mm 0.00 in0.0 mm
04:00 PM 43.3°F6.3°C 39.7°F4.3°C 87% Calm Calm -- 29.35 in993.9 mb - 0.00 in0.0 mm 0.00 in0.0 mm
04:10 PM 43.2°F6.2°C 39.6°F4.2°C 87% Calm Calm -- 29.35 in993.9 mb - 0.00 in0.0 mm 0.00 in0.0 mm
04:20 PM 43.2°F6.2°C 39.6°F4.2°C 87% Calm Calm -- 29.35 in993.9 mb - 0.00 in0.0 mm 0.00 in0.0 mm
04:30 PM 43.3°F6.3°C 39.7°F4.3°C 87% Calm Calm -- 29.35 in993.9 mb - 0.00 in0.0 mm 0.00 in0.0 mm
04:40 PM 43.2°F6.2°C 39.6°F4.2°C 87% Calm Calm -- 29.35 in993.9 mb - 0.00 in0.0 mm 0.00 in0.0 mm
04:50 PM 43.3°F6.3°C 40.0°F4.4°C 88% Calm Calm -- 29.38 in994.9 mb - 0.00 in0.0 mm 0.00 in0.0 mm
05:00 PM 43.3°F6.3°C 40.0°F4.4°C 88% Calm Calm -- 29.38 in994.9 mb - 0.00 in0.0 mm 0.00 in0.0 mm
05:10 PM 43.5°F6.4°C 40.2°F4.6°C 88% Calm Calm -- 29.38 in994.9 mb - 0.00 in0.0 mm 0.00 in0.0 mm
05:20 PM 43.2°F6.2°C 39.8°F4.3°C 88% Calm Calm -- 29.38 in994.9 mb - 0.00 in0.0 mm 0.00 in0.0 mm
05:30 PM 43.0°F6.1°C 40.0°F4.4°C 89% Calm Calm -- 29.38 in994.9 mb - 0.00 in0.0 mm 0.00 in0.0 mm
05:40 PM 43.0°F6.1°C 40.0°F4.4°C 89% Calm Calm -- 29.38 in994.9 mb - 0.00 in0.0 mm 0.00 in0.0 mm
05:50 PM 42.6°F5.9°C 39.9°F4.4°C 90% Calm Calm -- 29.38 in994.9 mb - 0.00 in0.0 mm 0.00 in0.0 mm
06:00 PM 42.4°F5.8°C 39.7°F4.3°C 90% Calm Calm -- 29.38 in994.9 mb - 0.00 in0.0 mm 0.00 in0.0 mm
06:10 PM 42.3°F5.7°C 39.5°F4.2°C 90% Calm Calm -- 29.38 in994.9 mb - 0.00 in0.0 mm 0.00 in0.0 mm
06:20 PM 41.9°F5.5°C 39.5°F4.2°C 91% Calm Calm -- 29.38 in994.9 mb - 0.00 in0.0 mm 0.00 in0.0 mm
06:30 PM 41.5°F5.3°C 39.1°F3.9°C 91% Calm Calm -- 29.38 in994.9 mb - 0.00 in0.0 mm 0.00 in0.0 mm
06:40 PM 41.4°F5.2°C 39.2°F4.0°C 92% Calm Calm -- 29.38 in994.9 mb - 0.00 in0.0 mm 0.00 in0.0 mm
06:50 PM 41.2°F5.1°C 39.0°F3.9°C 92% Calm Calm -- 29.38 in994.9 mb - 0.00 in0.0 mm 0.00 in0.0 mm
07:00 PM 41.0°F5.0°C 38.9°F3.8°C 92% Calm Calm -- 29.38 in994.9 mb - 0.00 in0.0 mm 0.00 in0.0 mm
07:10 PM 41.0°F5.0°C 39.1°F3.9°C 93% Calm Calm -- 29.38 in994.9 mb - 0.00 in0.0 mm 0.00 in0.0 mm
07:20 PM 40.8°F4.9°C 39.2°F4.0°C 94% Calm Calm -- 29.41 in995.9 mb - 0.00 in0.0 mm 0.00 in0.0 mm
07:30 PM 40.8°F4.9°C 39.2°F4.0°C 94% Calm Calm -- 29.41 in995.9 mb - 0.00 in0.0 mm 0.00 in0.0 mm
07:40 PM 40.6°F4.8°C 39.0°F3.9°C 94% Calm Calm -- 29.41 in995.9 mb - 0.00 in0.0 mm 0.00 in0.0 mm
07:50 PM 40.6°F4.8°C 39.3°F4.1°C 95% Calm Calm -- 29.41 in995.9 mb - 0.00 in0.0 mm 0.00 in0.0 mm
08:00 PM 40.6°F4.8°C 39.3°F4.1°C 95% Calm Calm -- 29.44 in997.0 mb - 0.00 in0.0 mm 0.00 in0.0 mm
08:10 PM 40.5°F4.7°C 39.1°F3.9°C 95% Calm Calm -- 29.44 in997.0 mb - 0.00 in0.0 mm 0.00 in0.0 mm
08:20 PM 40.5°F4.7°C 39.4°F4.1°C 96% Calm Calm -- 29.44 in997.0 mb - 0.00 in0.0 mm 0.00 in0.0 mm
08:30 PM 40.5°F4.7°C 39.4°F4.1°C 96% Calm Calm -- 29.44 in997.0 mb - 0.00 in0.0 mm 0.00 in0.0 mm
08:40 PM 40.5°F4.7°C 39.4°F4.1°C 96% Calm Calm -- 29.44 in997.0 mb - 0.00 in0.0 mm 0.00 in0.0 mm
08:50 PM 40.5°F4.7°C 39.7°F4.3°C 97% Calm Calm -- 29.44 in997.0 mb - 0.00 in0.0 mm 0.00 in0.0 mm
09:00 PM 40.5°F4.7°C 39.7°F4.3°C 97% Calm Calm -- 29.44 in997.0 mb - 0.00 in0.0 mm 0.00 in0.0 mm
09:10 PM 40.3°F4.6°C 39.5°F4.2°C 97% Calm Calm -- 29.44 in997.0 mb - 0.00 in0.0 mm 0.00 in0.0 mm
09:20 PM 40.3°F4.6°C 39.5°F4.2°C 97% Calm Calm -- 29.44 in997.0 mb - 0.00 in0.0 mm 0.00 in0.0 mm
09:30 PM 40.3°F4.6°C 39.8°F4.3°C 98% Calm Calm -- 29.44 in997.0 mb - 0.00 in0.0 mm 0.00 in0.0 mm
09:40 PM 40.3°F4.6°C 39.8°F4.3°C 98% Calm Calm -- 29.44 in997.0 mb - 0.00 in0.0 mm 0.00 in0.0 mm
09:50 PM 40.3°F4.6°C 39.8°F4.3°C 98% Calm Calm -- 29.44 in997.0 mb - 0.00 in0.0 mm 0.00 in0.0 mm
10:00 PM 40.3°F4.6°C 39.8°F4.3°C 98% Calm Calm -- 29.44 in997.0 mb - 0.00 in0.0 mm 0.00 in0.0 mm
10:10 PM 40.3°F4.6°C 39.8°F4.3°C 98% Calm Calm -- 29.44 in997.0 mb - 0.00 in0.0 mm 0.00 in0.0 mm
10:20 PM 40.3°F4.6°C 39.8°F4.3°C 98% Calm Calm -- 29.47 in998.0 mb - 0.00 in0.0 mm 0.00 in0.0 mm
10:30 PM 40.1°F4.5°C 39.6°F4.2°C 98% Calm Calm -- 29.44 in997.0 mb - 0.00 in0.0 mm 0.00 in0.0 mm
10:40 PM 40.1°F4.5°C 39.6°F4.2°C 98% Calm Calm -- 29.44 in997.0 mb - 0.00 in0.0 mm 0.00 in0.0 mm
10:50 PM 40.1°F4.5°C 39.6°F4.2°C 98% Calm Calm -- 29.47 in998.0 mb - 0.00 in0.0 mm 0.00 in0.0 mm
11:00 PM 40.1°F4.5°C 39.6°F4.2°C 98% Calm Calm -- 29.47 in998.0 mb - 0.00 in0.0 mm 0.00 in0.0 mm
11:10 PM 40.1°F4.5°C 39.6°F4.2°C 98% Calm Calm -- 29.47 in998.0 mb - 0.00 in0.0 mm 0.00 in0.0 mm
11:20 PM 40.1°F4.5°C 39.6°F4.2°C 98% Calm Calm -- 29.47 in998.0 mb - 0.00 in0.0 mm 0.00 in0.0 mm
11:30 PM 40.1°F4.5°C 39.6°F4.2°C 98% Calm Calm -- 29.47 in998.0 mb - 0.00 in0.0 mm 0.00 in0.0 mm
11:40 PM 39.9°F4.4°C 39.4°F4.1°C 98% Calm Calm -- 29.47 in998.0 mb - 0.00 in0.0 mm 0.00 in0.0 mm
11:50 PM 39.9°F4.4°C 39.4°F4.1°C 98% Calm Calm -- 29.47 in998.0 mb - 0.00 in0.0 mm 0.00 in0.0 mm